METAR Data

Data at: 0228 UTC 16 Jan 2019

METAR for:KATL (Atlanta/Hartsfield-J, GA, US)
Text:KATL 160152Z 31008KT 10SM BKN250 02/M02 A3025 RMK AO2 SLP250 T00171022
Temperature: 1.7°C ( 35°F)
Dewpoint: -2.2°C ( 28°F) [RH = 75%]
Pressure (altimeter):30.25 inches Hg (1024.5 mb) [Sea level pressure: 1025.0 mb]
Winds:from the NW (310 degrees) at 9 MPH (8 knots; 4.1 m/s)
Visibility:10 or more sm (16+ km)
Ceiling:25000 feet AGL
Clouds: broken clouds at 25000 feet AGL